Time;durP1;ratioP1;P1;durP2;ratioP2;P2;SDS_P1;SDS_P2;PMS_P1;PMS_P2;Temp;Humidity;BMP_temperature;BMP_pressure;BME280_temperature;BME280_humidity;BME280_pressure;Samples;Min_cycle;Max_cycle;Signal;HPM_P1;HPM_P2
2023/04/24 00:01:31;;;;;;;;;;;;;;;10.46;100.00;97548.97;5025702;28;19925;-60
2023/04/24 00:03:59;;;;;;;;;;;;;;;10.44;100.00;97529.31;5024612;28;20634;-60
2023/04/24 00:06:32;;;;;;;;;;;;;;;10.44;100.00;97530.16;5027756;28;19924;-59
2023/04/24 00:09:00;;;;;;;;;;;;;;;10.46;100.00;97530.78;4990231;28;20394;-61
2023/04/24 00:11:25;;;;;;;;;;;;;;;10.51;100.00;97527.66;5007444;28;19932;-59
2023/04/24 00:13:51;;;;;;;;;;;;;;;10.53;100.00;97528.28;5007692;28;19921;-62
2023/04/24 00:16:16;;;;;;;;;;;;;;;10.49;100.00;97532.22;5005644;28;19928;-62
2023/04/24 00:18:41;;;;;;;;;;;;;;;10.56;100.00;97533.16;5024533;28;20372;-61
2023/04/24 00:21:07;;;;;;;;;;;;;;;10.47;100.00;97532.38;5005679;28;19932;-61
2023/04/24 00:23:34;;;;;;;;;;;;;;;10.55;100.00;97524.56;4992734;28;19947;-60
2023/04/24 00:26:00;;;;;;;;;;;;;;;10.62;100.00;97527.28;5005717;28;19936;-59
2023/04/24 00:28:25;;;;;;;;;;;;;;;10.70;100.00;97526.44;5002298;28;20339;-60
2023/04/24 00:30:50;;;;;;;;;;;;;;;10.70;100.00;97518.63;5003765;28;19929;-59
2023/04/24 00:33:15;;;;;;;;;;;;;;;10.74;100.00;97497.31;5024251;28;20434;-60
2023/04/24 00:35:41;;;;;;;;;;;;;;;10.74;100.00;97484.31;5022137;28;19960;-61
2023/04/24 00:38:07;;;;;;;;;;;;;;;10.77;100.00;97473.56;5001152;28;19924;-61
2023/04/24 00:40:32;;;;;;;;;;;;;;;10.65;100.00;97484.53;5007104;28;19928;-60
2023/04/24 00:42:57;;;;;;;;;;;;;;;10.60;100.00;97512.84;5021062;28;19959;-62
2023/04/24 00:45:22;;;;;;;;;;;;;;;10.50;100.00;97513.88;5022222;28;19925;-60
2023/04/24 00:47:50;;;;;;;;;;;;;;;10.36;100.00;97512.00;4992722;28;20289;-60
2023/04/24 00:50:15;;;;;;;;;;;;;;;10.52;100.00;97514.50;4992361;28;19967;-60
2023/04/24 00:52:41;;;;;;;;;;;;;;;10.59;100.00;97501.63;5002987;28;20670;-59
2023/04/24 00:55:06;;;;;;;;;;;;;;;10.63;100.00;97504.72;4991819;28;19931;-60
2023/04/24 00:57:32;;;;;;;;;;;;;;;10.63;100.00;97500.31;4988931;28;20635;-61
2023/04/24 00:59:57;;;;;;;;;;;;;;;10.68;100.00;97494.59;5002979;28;20383;-59
2023/04/24 01:02:22;;;;;;;;;;;;;;;10.65;100.00;97490.53;5022103;28;20454;-60
2023/04/24 01:04:49;;;;;;;;;;;;;;;10.61;100.00;97484.06;4987430;28;19921;-59
2023/04/24 01:07:17;;;;;;;;;;;;;;;10.68;100.00;97477.22;4995244;28;19926;-59
2023/04/24 01:09:42;;;;;;;;;;;;;;;10.63;100.00;97482.13;5003478;28;19933;-60
2023/04/24 01:12:08;;;;;;;;;;;;;;;10.52;100.00;97485.13;5009442;28;19921;-59
2023/04/24 01:14:36;;;;;;;;;;;;;;;10.47;100.00;97484.81;5019474;28;20365;-61
2023/04/24 01:17:04;;;;;;;;;;;;;;;10.52;100.00;97477.31;5006272;28;20370;-59
2023/04/24 01:19:29;;;;;;;;;;;;;;;10.52;100.00;97479.91;5006486;28;19925;-59
2023/04/24 01:21:57;;;;;;;;;;;;;;;10.46;100.00;97478.81;4989618;28;19929;-59
2023/04/24 01:24:24;;;;;;;;;;;;;;;10.36;100.00;97480.81;5008286;28;19932;-60
2023/04/24 01:26:52;;;;;;;;;;;;;;;10.30;100.00;97474.47;5018996;28;20009;-59
2023/04/24 01:29:17;;;;;;;;;;;;;;;10.33;100.00;97475.94;5006157;28;20012;-59
2023/04/24 01:31:43;;;;;;;;;;;;;;;10.38;100.00;97471.06;5005248;28;19921;-59
2023/04/24 01:34:08;;;;;;;;;;;;;;;10.39;100.00;97475.28;4989749;28;19921;-58
2023/04/24 01:36:34;;;;;;;;;;;;;;;10.46;100.00;97478.81;5023852;28;19978;-60
2023/04/24 01:39:00;;;;;;;;;;;;;;;10.48;100.00;97474.25;5003149;28;19925;-59
2023/04/24 01:41:25;;;;;;;;;;;;;;;10.46;100.00;97488.38;5023188;28;19979;-59
2023/04/24 01:43:51;;;;;;;;;;;;;;;10.39;100.00;97493.47;5003224;28;19988;-59
2023/04/24 01:46:16;;;;;;;;;;;;;;;10.37;100.00;97496.22;5019191;28;20351;-59
2023/04/24 01:48:41;;;;;;;;;;;;;;;10.36;100.00;97499.00;5004872;28;20376;-59
2023/04/24 01:51:07;;;;;;;;;;;;;;;10.39;100.00;97496.06;5005222;28;19958;-61
2023/04/24 01:53:34;;;;;;;;;;;;;;;10.32;100.00;97490.72;5004097;28;20377;-59
2023/04/24 01:56:00;;;;;;;;;;;;;;;10.33;100.00;97489.75;5019706;28;19928;-58
2023/04/24 01:58:25;;;;;;;;;;;;;;;10.35;100.00;97481.81;5002946;28;19925;-59
2023/04/24 02:00:51;;;;;;;;;;;;;;;10.35;100.00;97468.81;5000232;28;19964;-59
2023/04/24 02:03:16;;;;;;;;;;;;;;;10.34;100.00;97467.97;5006285;28;19921;-59
2023/04/24 02:05:44;;;;;;;;;;;;;;;10.26;100.00;97459.38;5003984;28;20020;-59
2023/04/24 02:08:12;;;;;;;;;;;;;;;10.30;100.00;97460.69;5037441;28;19932;-59
2023/04/24 02:10:38;;;;;;;;;;;;;;;10.31;100.00;97460.56;5009772;28;20016;-59
2023/04/24 02:13:05;;;;;;;;;;;;;;;10.23;100.00;97452.75;5007268;28;20282;-59
2023/04/24 02:15:31;;;;;;;;;;;;;;;10.19;100.00;97452.28;5023537;28;19932;-61
2023/04/24 02:17:56;;;;;;;;;;;;;;;10.10;100.00;97448.13;5007257;28;20299;-59
2023/04/24 02:20:21;;;;;;;;;;;;;;;10.12;100.00;97458.34;5011040;28;19925;-60
2023/04/24 02:22:49;;;;;;;;;;;;;;;10.16;100.00;97449.22;5025516;28;19974;-59
2023/04/24 02:25:14;;;;;;;;;;;;;;;10.07;100.00;97450.25;5041947;28;19931;-59
2023/04/24 02:27:40;;;;;;;;;;;;;;;10.07;100.00;97456.22;5041255;28;19925;-59
2023/04/24 02:30:06;;;;;;;;;;;;;;;10.15;100.00;97447.63;5002942;28;19925;-59
2023/04/24 02:32:31;;;;;;;;;;;;;;;10.12;100.00;97447.94;5009257;28;19928;-59
2023/04/24 02:34:56;;;;;;;;;;;;;;;10.11;100.00;97460.13;5023554;28;20015;-60
2023/04/24 02:37:21;;;;;;;;;;;;;;;10.04;100.00;97456.59;5006348;28;20027;-59
2023/04/24 02:39:47;;;;;;;;;;;;;;;10.09;100.00;97451.69;5009381;28;19944;-61
2023/04/24 02:42:12;;;;;;;;;;;;;;;9.78;100.00;97429.13;5019307;28;19972;-61
2023/04/24 02:44:37;;;;;;;;;;;;;;;10.04;100.00;97454.00;5024215;28;20340;-58
2023/04/24 02:47:03;;;;;;;;;;;;;;;10.03;100.00;97447.16;5007428;28;19920;-59
2023/04/24 02:49:28;;;;;;;;;;;;;;;10.00;100.00;97450.09;5009521;28;19936;-58
2023/04/24 02:51:56;;;;;;;;;;;;;;;10.00;100.00;97448.34;5025066;28;19924;-59
2023/04/24 02:54:21;;;;;;;;;;;;;;;9.98;100.00;97437.31;5021528;28;19959;-59
2023/04/24 02:56:46;;;;;;;;;;;;;;;9.89;100.00;97440.09;5010036;28;20406;-59
2023/04/24 02:59:12;;;;;;;;;;;;;;;9.95;100.00;97434.25;5041837;28;19921;-59
2023/04/24 03:01:37;;;;;;;;;;;;;;;9.86;100.00;97432.66;5007213;28;19999;-58
2023/04/24 03:04:03;;;;;;;;;;;;;;;9.82;100.00;97429.59;5023729;28;20016;-59
2023/04/24 03:06:31;;;;;;;;;;;;;;;9.86;100.00;97427.47;5046485;28;19968;-59
2023/04/24 03:08:56;;;;;;;;;;;;;;;9.80;100.00;97423.72;4995266;28;19932;-60
2023/04/24 03:11:21;;;;;;;;;;;;;;;9.86;100.00;97430.88;4989942;28;19921;-60
2023/04/24 03:13:47;;;;;;;;;;;;;;;9.95;100.00;97427.25;4983038;28;20039;-60
2023/04/24 03:16:12;;;;;;;;;;;;;;;9.94;100.00;97432.59;4986427;28;20299;-59
2023/04/24 03:18:37;;;;;;;;;;;;;;;9.94;100.00;97435.19;4984195;28;19967;-59
2023/04/24 03:21:05;;;;;;;;;;;;;;;9.93;100.00;97412.81;5004716;28;19933;-58
2023/04/24 03:23:32;;;;;;;;;;;;;;;9.88;100.00;97426.31;4987301;28;19925;-59
2023/04/24 03:25:58;;;;;;;;;;;;;;;9.86;100.00;97414.47;5004415;28;19925;-59
2023/04/24 03:28:24;;;;;;;;;;;;;;;9.77;100.00;97414.50;5003861;28;19931;-59
2023/04/24 03:30:50;;;;;;;;;;;;;;;9.76;100.00;97412.06;5008858;28;19921;-61
2023/04/24 03:33:15;;;;;;;;;;;;;;;9.70;100.00;97402.38;4991937;28;20314;-59
2023/04/24 03:35:41;;;;;;;;;;;;;;;9.74;100.00;97396.66;4999040;28;19936;-59
2023/04/24 03:38:06;;;;;;;;;;;;;;;9.73;100.00;97392.47;5023605;28;20291;-59
2023/04/24 03:40:33;;;;;;;;;;;;;;;9.63;100.00;97384.06;5007118;28;19925;-59
2023/04/24 03:42:58;;;;;;;;;;;;;;;9.63;100.00;97394.44;5001860;28;19917;-59
2023/04/24 03:45:24;;;;;;;;;;;;;;;9.65;100.00;97394.28;5009725;28;19925;-61
2023/04/24 03:47:49;;;;;;;;;;;;;;;9.66;100.00;97388.13;5008144;28;19925;-60
2023/04/24 03:50:15;;;;;;;;;;;;;;;9.71;100.00;97378.84;5009456;28;19925;-60
2023/04/24 03:52:40;;;;;;;;;;;;;;;9.65;100.00;97379.50;4994742;28;20394;-59
2023/04/24 03:55:06;;;;;;;;;;;;;;;9.70;100.00;97384.19;4993305;28;19925;-59
2023/04/24 03:57:31;;;;;;;;;;;;;;;9.73;100.00;97394.22;5006927;28;19921;-59
2023/04/24 03:59:57;;;;;;;;;;;;;;;9.79;100.00;97402.16;4992397;28;19925;-61
2023/04/24 04:02:22;;;;;;;;;;;;;;;9.71;100.00;97402.22;5006308;28;19921;-62
2023/04/24 04:04:47;;;;;;;;;;;;;;;9.65;100.00;97400.28;5009339;28;19921;-60
2023/04/24 04:07:13;;;;;;;;;;;;;;;9.59;100.00;97409.53;5020245;28;20040;-60
2023/04/24 04:09:38;;;;;;;;;;;;;;;9.60;100.00;97410.34;5028433;28;19924;-60
2023/04/24 04:12:03;;;;;;;;;;;;;;;9.67;100.00;97408.69;5026579;28;19925;-59
2023/04/24 04:14:29;;;;;;;;;;;;;;;9.61;100.00;97417.16;5030786;28;19921;-59
2023/04/24 04:16:54;;;;;;;;;;;;;;;9.65;100.00;97415.84;5022149;28;19921;-59
2023/04/24 04:19:20;;;;;;;;;;;;;;;9.63;100.00;97417.81;5006175;28;19932;-59
2023/04/24 04:21:45;;;;;;;;;;;;;;;9.54;100.00;97417.00;5026619;28;19925;-60
2023/04/24 04:24:11;;;;;;;;;;;;;;;9.47;100.00;97417.84;5034582;28;19925;-61
2023/04/24 04:26:37;;;;;;;;;;;;;;;9.52;100.00;97425.94;5023633;28;19956;-59
2023/04/24 04:29:06;;;;;;;;;;;;;;;9.42;100.00;97428.75;5008076;28;19925;-59
2023/04/24 04:31:31;;;;;;;;;;;;;;;9.51;100.00;97427.75;5028733;28;19925;-59
2023/04/24 04:33:57;;;;;;;;;;;;;;;9.43;100.00;97431.16;5023126;28;19932;-60
2023/04/24 04:36:23;;;;;;;;;;;;;;;9.34;100.00;97436.53;5010064;28;19928;-61
2023/04/24 04:38:49;;;;;;;;;;;;;;;9.39;100.00;97455.00;5027512;28;19964;-59
2023/04/24 04:41:16;;;;;;;;;;;;;;;9.41;100.00;97450.47;5009441;28;20703;-61
2023/04/24 04:43:42;;;;;;;;;;;;;;;9.42;100.00;97452.09;5012487;28;20398;-59
2023/04/24 04:46:08;;;;;;;;;;;;;;;9.41;100.00;97466.84;5009625;28;19925;-59
2023/04/24 04:48:33;;;;;;;;;;;;;;;9.33;100.00;97472.06;5028704;28;20258;-59
2023/04/24 04:50:59;;;;;;;;;;;;;;;9.33;100.00;97473.84;5024139;28;19925;-60
2023/04/24 04:53:24;;;;;;;;;;;;;;;9.32;100.00;97483.38;5012054;28;19929;-59
2023/04/24 04:55:49;;;;;;;;;;;;;;;9.29;100.00;97475.13;5025300;28;19921;-60
2023/04/24 04:58:15;;;;;;;;;;;;;;;9.37;100.00;97481.13;5010543;28;19916;-60
2023/04/24 05:00:41;;;;;;;;;;;;;;;9.21;100.00;97481.13;5021826;28;19983;-60
2023/04/24 05:03:06;;;;;;;;;;;;;;;9.24;100.00;97475.63;5005505;28;19928;-60
2023/04/24 05:05:32;;;;;;;;;;;;;;;9.31;100.00;97478.34;5027333;28;20237;-60
2023/04/24 05:08:02;;;;;;;;;;;;;;;9.31;100.00;97476.59;5024101;28;20351;-59
2023/04/24 05:10:27;;;;;;;;;;;;;;;9.36;100.00;97478.69;4984154;28;19968;-62
2023/04/24 05:12:53;;;;;;;;;;;;;;;9.34;100.00;97476.25;5000396;28;20048;-60
2023/04/24 05:15:21;;;;;;;;;;;;;;;9.38;100.00;97467.19;5000612;28;21687;-59
2023/04/24 05:17:46;;;;;;;;;;;;;;;9.33;100.00;97461.66;5002775;28;19925;-59
2023/04/24 05:20:11;;;;;;;;;;;;;;;9.29;100.00;97457.78;4999790;28;20429;-60
2023/04/24 05:22:36;;;;;;;;;;;;;;;9.34;100.00;97458.09;4977878;28;19924;-60
2023/04/24 05:25:02;;;;;;;;;;;;;;;9.33;100.00;97460.88;5004000;28;19999;-60
2023/04/24 05:27:27;;;;;;;;;;;;;;;9.31;100.00;97474.00;4981941;28;19968;-60
2023/04/24 05:29:53;;;;;;;;;;;;;;;9.33;100.00;97485.03;5008059;28;19933;-60
2023/04/24 05:32:18;;;;;;;;;;;;;;;9.07;100.00;97448.06;5023468;28;19925;-62
2023/04/24 05:34:43;;;;;;;;;;;;;;;9.31;100.00;97496.50;5022624;28;20299;-60
2023/04/24 05:37:09;;;;;;;;;;;;;;;9.38;100.00;97497.47;4999901;28;19925;-60
2023/04/24 05:39:35;;;;;;;;;;;;;;;9.38;100.00;97484.50;5023048;28;19921;-60
2023/04/24 05:42:01;;;;;;;;;;;;;;;9.37;100.00;97488.09;5009398;28;19932;-64
2023/04/24 05:44:26;;;;;;;;;;;;;;;9.40;100.00;97488.56;5005835;28;20707;-60
2023/04/24 05:46:55;;;;;;;;;;;;;;;9.42;100.00;97491.81;5005528;28;19929;-62
2023/04/24 05:49:21;;;;;;;;;;;;;;;9.39;100.00;97493.94;5003318;28;19924;-61
2023/04/24 05:51:46;;;;;;;;;;;;;;;9.39;100.00;97501.72;5005463;28;19925;-60
2023/04/24 05:54:13;;;;;;;;;;;;;;;9.39;100.00;97502.50;5020977;28;19920;-60
2023/04/24 05:56:39;;;;;;;;;;;;;;;9.40;100.00;97495.53;4992518;28;19925;-60
2023/04/24 05:59:05;;;;;;;;;;;;;;;9.39;100.00;97493.94;4989485;28;20269;-61
2023/04/24 06:01:31;;;;;;;;;;;;;;;9.37;100.00;97496.69;4988625;28;19929;-61
2023/04/24 06:03:56;;;;;;;;;;;;;;;9.36;100.00;97502.84;5001184;28;19925;-61
2023/04/24 06:06:25;;;;;;;;;;;;;;;9.39;100.00;97505.09;5010667;28;19971;-60
2023/04/24 06:08:51;;;;;;;;;;;;;;;9.40;100.00;97496.34;5008433;28;19924;-60
2023/04/24 06:11:19;;;;;;;;;;;;;;;9.37;100.00;97498.47;5022225;28;19917;-61
2023/04/24 06:13:44;;;;;;;;;;;;;;;9.37;100.00;97501.06;5009410;28;19921;-60
2023/04/24 06:16:09;;;;;;;;;;;;;;;9.32;100.00;97498.16;5008121;28;19950;-60
2023/04/24 06:18:35;;;;;;;;;;;;;;;9.23;100.00;97499.94;5037148;28;19937;-60
2023/04/24 06:21:00;;;;;;;;;;;;;;;9.20;100.00;97497.69;5039483;28;19936;-61
2023/04/24 06:23:25;;;;;;;;;;;;;;;9.20;100.00;97497.69;5025771;28;19974;-60
2023/04/24 06:25:51;;;;;;;;;;;;;;;9.19;100.00;97506.44;5025381;28;20458;-61
2023/04/24 06:28:16;;;;;;;;;;;;;;;9.23;100.00;97521.47;5024746;28;20033;-60
2023/04/24 06:30:41;;;;;;;;;;;;;;;9.19;100.00;97499.44;5022832;28;19921;-60
2023/04/24 06:33:09;;;;;;;;;;;;;;;9.16;100.00;97507.56;5021300;28;20387;-60
2023/04/24 06:35:35;;;;;;;;;;;;;;;9.19;100.00;97509.81;5010014;28;19931;-60
2023/04/24 06:38:00;;;;;;;;;;;;;;;9.13;100.00;97504.50;5022491;28;19925;-61
2023/04/24 06:40:26;;;;;;;;;;;;;;;9.12;100.00;97503.66;5022019;28;20559;-61
2023/04/24 06:42:51;;;;;;;;;;;;;;;9.12;100.00;97511.44;5024129;28;19925;-61
2023/04/24 06:45:16;;;;;;;;;;;;;;;9.08;100.00;97504.97;5022511;28;20419;-61
2023/04/24 06:47:41;;;;;;;;;;;;;;;9.15;100.00;97513.72;5025679;28;19925;-62
2023/04/24 06:50:07;;;;;;;;;;;;;;;9.12;100.00;97515.81;5008912;28;19924;-61
2023/04/24 06:52:32;;;;;;;;;;;;;;;9.20;100.00;97510.66;5008022;28;19921;-61
2023/04/24 06:55:02;;;;;;;;;;;;;;;9.26;100.00;97511.78;5023875;28;19921;-61
2023/04/24 06:57:27;;;;;;;;;;;;;;;9.23;100.00;97521.47;5029465;28;19947;-61
2023/04/24 06:59:52;;;;;;;;;;;;;;;9.32;100.00;97518.91;5027020;28;20454;-61
2023/04/24 07:02:18;;;;;;;;;;;;;;;9.23;100.00;97515.50;5012354;28;19934;-61
2023/04/24 07:04:43;;;;;;;;;;;;;;;9.34;100.00;97517.75;5025943;28;20811;-61
2023/04/24 07:07:12;;;;;;;;;;;;;;;9.36;100.00;97515.84;5010654;28;19971;-59
2023/04/24 07:09:40;;;;;;;;;;;;;;;9.40;100.00;97524.91;5013324;28;19966;-61
2023/04/24 07:12:07;;;;;;;;;;;;;;;9.42;100.00;97525.53;5026730;28;19917;-61
2023/04/24 07:14:32;;;;;;;;;;;;;;;9.47;100.00;97525.03;5017187;28;19927;-62
2023/04/24 07:16:58;;;;;;;;;;;;;;;9.51;100.00;97521.16;5028073;28;19921;-59
2023/04/24 07:19:23;;;;;;;;;;;;;;;9.61;100.00;97515.78;5028996;28;19963;-59
2023/04/24 07:21:48;;;;;;;;;;;;;;;9.63;100.00;97508.63;5024522;28;19932;-60
2023/04/24 07:24:13;;;;;;;;;;;;;;;9.75;100.00;97503.91;5025461;28;20010;-59
2023/04/24 07:26:39;;;;;;;;;;;;;;;9.85;100.00;97506.31;5012335;28;19925;-60
2023/04/24 07:29:05;;;;;;;;;;;;;;;9.85;100.00;97504.53;5006171;28;19921;-59
2023/04/24 07:31:31;;;;;;;;;;;;;;;9.86;100.00;97502.75;5028691;28;19932;-60
2023/04/24 07:33:58;;;;;;;;;;;;;;;9.80;100.00;97494.66;5007374;28;19972;-59
2023/04/24 07:36:25;;;;;;;;;;;;;;;9.80;100.00;97497.25;5031634;28;19920;-59
2023/04/24 07:38:53;;;;;;;;;;;;;;;9.88;100.00;97499.00;5029622;28;19925;-59
2023/04/24 07:41:18;;;;;;;;;;;;;;;9.98;100.00;97494.44;5029669;28;19917;-62
2023/04/24 07:43:44;;;;;;;;;;;;;;;9.95;100.00;97497.34;5028796;28;19920;-59
2023/04/24 07:46:09;;;;;;;;;;;;;;;10.00;100.00;97496.84;5015570;28;20500;-60
2023/04/24 07:48:34;;;;;;;;;;;;;;;10.03;100.00;97490.53;5015229;28;19992;-60
2023/04/24 07:51:00;;;;;;;;;;;;;;;10.04;100.00;97494.72;5013046;28;20386;-60
2023/04/24 07:53:27;;;;;;;;;;;;;;;10.12;100.00;97497.28;5009748;28;19921;-59
2023/04/24 07:55:54;;;;;;;;;;;;;;;10.10;100.00;97497.47;5025011;28;19924;-60
2023/04/24 07:58:20;;;;;;;;;;;;;;;10.06;100.00;97488.41;5046160;28;19960;-62
2023/04/24 08:00:45;;;;;;;;;;;;;;;10.13;100.00;97499.72;5041594;28;20276;-60
2023/04/24 08:03:12;;;;;;;;;;;;;;;10.16;100.00;97488.19;5026769;28;19931;-60
2023/04/24 08:05:37;;;;;;;;;;;;;;;10.17;100.00;97482.03;5011286;28;20376;-60
2023/04/24 08:08:02;;;;;;;;;;;;;;;10.18;100.00;97487.06;5007113;28;19925;-59
2023/04/24 08:10:28;;;;;;;;;;;;;;;10.27;100.00;97489.59;5025980;28;19929;-60
2023/04/24 08:12:54;;;;;;;;;;;;;;;10.35;100.00;97490.41;5025914;28;19925;-62
2023/04/24 08:15:20;;;;;;;;;;;;;;;10.37;100.00;97492.84;5043513;28;20277;-62
2023/04/24 08:17:45;;;;;;;;;;;;;;;10.63;100.00;97499.50;5026330;28;19967;-59
2023/04/24 08:20:13;;;;;;;;;;;;;;;12.01;100.00;97503.66;5027912;28;19968;-62
2023/04/24 08:22:41;;;;;;;;;;;;;;;13.23;96.73;97502.94;5042978;28;20011;-61
2023/04/24 08:25:07;;;;;;;;;;;;;;;14.15;91.49;97498.53;5027089;28;20071;-60
2023/04/24 08:27:32;;;;;;;;;;;;;;;14.98;88.57;97501.78;5013710;28;20016;-60
2023/04/24 08:29:59;;;;;;;;;;;;;;;15.75;81.95;97498.75;5040730;28;19935;-59
2023/04/24 08:32:25;;;;;;;;;;;;;;;16.19;79.50;97499.03;5043310;28;19958;-59
2023/04/24 08:34:52;;;;;;;;;;;;;;;16.53;77.51;97503.94;5003605;28;19917;-59
2023/04/24 08:37:17;;;;;;;;;;;;;;;16.90;75.13;97503.34;5006117;28;19940;-60
2023/04/24 08:39:45;;;;;;;;;;;;;;;17.72;69.47;97502.50;5030820;28;19925;-61
2023/04/24 08:42:11;;;;;;;;;;;;;;;18.68;66.09;97494.94;5042947;28;20348;-58
2023/04/24 08:44:38;;;;;;;;;;;;;;;18.61;65.11;97502.91;5026864;28;20016;-60
2023/04/24 08:47:04;;;;;;;;;;;;;;;18.60;66.30;97499.47;5022337;28;20410;-60
2023/04/24 08:49:29;;;;;;;;;;;;;;;18.27;67.20;97501.72;5030131;28;19928;-61
2023/04/24 08:51:54;;;;;;;;;;;;;;;18.10;66.51;97498.88;5007449;28;19921;-61
2023/04/24 08:54:20;;;;;;;;;;;;;;;17.78;67.14;97504.25;5027198;28;19951;-60
2023/04/24 08:56:45;;;;;;;;;;;;;;;17.61;65.35;97499.53;5009973;28;20010;-60
2023/04/24 08:59:11;;;;;;;;;;;;;;;17.97;66.01;97498.00;5009747;28;19928;-60
2023/04/24 09:01:37;;;;;;;;;;;;;;;17.48;65.28;97495.22;5024770;28;19920;-60
2023/04/24 09:04:03;;;;;;;;;;;;;;;16.83;69.49;97487.66;5006125;28;19928;-60
2023/04/24 09:06:28;;;;;;;;;;;;;;;16.40;73.01;97493.50;5023414;28;19920;-59
2023/04/24 09:08:54;;;;;;;;;;;;;;;15.44;72.33;97466.16;5025474;28;19978;-62
2023/04/24 09:11:19;;;;;;;;;;;;;;;15.08;73.58;97483.09;5024508;28;20737;-60
2023/04/24 09:13:44;;;;;;;;;;;;;;;14.47;75.04;97483.16;5025977;28;19921;-60
2023/04/24 09:16:12;;;;;;;;;;;;;;;13.90;76.43;97453.78;5025351;28;20316;-60
2023/04/24 09:18:40;;;;;;;;;;;;;;;13.98;76.72;97483.19;5023557;28;19927;-60
2023/04/24 09:21:09;;;;;;;;;;;;;;;13.88;78.57;97489.75;5009058;28;19932;-60
2023/04/24 09:23:34;;;;;;;;;;;;;;;13.87;84.85;97478.47;5006172;28;19921;-60
2023/04/24 09:26:00;;;;;;;;;;;;;;;13.72;83.46;97488.25;5023453;28;21103;-60
2023/04/24 09:28:46;;;;;;;;;;;;;;;13.73;85.87;97472.38;5021486;28;19923;-61
2023/04/24 09:31:17;;;;;;;;;;;;;;;13.70;84.36;97478.00;5037043;28;20017;-61
2023/04/24 09:33:53;;;;;;;;;;;;;;;13.63;88.17;97480.59;5025620;28;19917;-61
2023/04/24 09:36:18;;;;;;;;;;;;;;;13.67;88.14;97474.97;5022344;28;19925;-61
2023/04/24 09:38:43;;;;;;;;;;;;;;;13.70;91.56;97475.38;5025302;28;20425;-61
2023/04/24 09:41:10;;;;;;;;;;;;;;;13.79;88.19;97479.44;5009055;28;19921;-60
2023/04/24 09:43:35;;;;;;;;;;;;;;;13.87;83.24;97481.09;5023557;28;19959;-63
2023/04/24 09:46:08;;;;;;;;;;;;;;;14.05;79.57;97477.97;5012563;28;20329;-59
2023/04/24 09:48:34;;;;;;;;;;;;;;;14.18;76.52;97479.81;5022364;28;19921;-59
2023/04/24 09:51:04;;;;;;;;;;;;;;;14.44;77.85;97479.13;5028096;28;20003;-59
2023/04/24 09:53:32;;;;;;;;;;;;;;;14.68;81.87;97477.81;5015814;28;19935;-59
2023/04/24 09:56:09;;;;;;;;;;;;;;;14.61;77.82;97482.22;5010779;28;19921;-61
2023/04/24 09:58:35;;;;;;;;;;;;;;;14.53;85.82;97490.19;5020589;28;19921;-59
2023/04/24 10:01:01;;;;;;;;;;;;;;;14.07;87.00;97485.63;5021681;28;19963;-60
2023/04/24 10:03:29;;;;;;;;;;;;;;;14.19;85.17;97481.47;5019259;28;20066;-63
2023/04/24 10:05:55;;;;;;;;;;;;;;;14.36;86.62;97476.69;5018147;28;20468;-61
2023/04/24 10:08:24;;;;;;;;;;;;;;;14.24;81.68;97479.06;5007349;28;20629;-61
2023/04/24 10:10:50;;;;;;;;;;;;;;;14.52;83.63;97481.56;5020089;28;19932;-60
2023/04/24 10:13:15;;;;;;;;;;;;;;;14.65;77.64;97480.81;5021798;28;19920;-60
2023/04/24 10:15:41;;;;;;;;;;;;;;;14.72;75.30;97479.00;5020987;28;20016;-61
2023/04/24 10:18:07;;;;;;;;;;;;;;;14.96;80.84;97477.63;5021394;28;20394;-61
2023/04/24 10:20:32;;;;;;;;;;;;;;;15.05;72.90;97480.06;5024472;28;19925;-61
2023/04/24 10:22:58;;;;;;;;;;;;;;;15.12;74.46;97468.59;5024191;28;20005;-61
2023/04/24 10:25:25;;;;;;;;;;;;;;;15.18;73.06;97474.81;5022516;28;19925;-61
2023/04/24 10:27:50;;;;;;;;;;;;;;;15.05;71.20;97464.34;5031785;28;20007;-61
2023/04/24 10:30:16;;;;;;;;;;;;;;;15.05;72.32;97467.78;5006977;28;19932;-61
2023/04/24 10:32:41;;;;;;;;;;;;;;;15.44;71.21;97463.53;5021769;28;19929;-59
2023/04/24 10:35:07;;;;;;;;;;;;;;;15.89;67.29;97461.03;4997718;28;20675;-61
2023/04/24 10:37:37;;;;;;;;;;;;;;;15.91;67.53;97453.75;5008861;28;19928;-61
2023/04/24 10:40:02;;;;;;;;;;;;;;;16.08;67.07;97448.88;5020238;28;19925;-60
2023/04/24 10:42:28;;;;;;;;;;;;;;;16.36;66.81;97445.09;5006648;28;19927;-60
2023/04/24 10:44:54;;;;;;;;;;;;;;;16.42;67.02;97446.09;5006061;28;19974;-60
2023/04/24 10:47:21;;;;;;;;;;;;;;;16.52;67.13;97449.06;5010750;28;19947;-61
2023/04/24 10:49:49;;;;;;;;;;;;;;;16.63;67.03;97440.50;5037969;28;19924;-59
2023/04/24 10:52:16;;;;;;;;;;;;;;;16.73;67.13;97440.84;5008668;28;19955;-61
2023/04/24 10:54:45;;;;;;;;;;;;;;;16.58;63.69;97415.94;5023544;28;19935;-63
2023/04/24 10:57:16;;;;;;;;;;;;;;;16.74;58.88;97449.53;5010599;28;19921;-59
2023/04/24 10:59:41;;;;;;;;;;;;;;;16.83;60.22;97445.66;5040259;28;20392;-60
2023/04/24 11:02:07;;;;;;;;;;;;;;;16.77;56.70;97451.72;5018167;28;19925;-61
2023/04/24 11:04:32;;;;;;;;;;;;;;;16.81;54.00;97452.09;5006800;28;19924;-60
2023/04/24 11:06:58;;;;;;;;;;;;;;;16.82;56.79;97449.25;5014916;28;20431;-62
2023/04/24 11:09:24;;;;;;;;;;;;;;;16.44;57.70;97441.44;4994695;28;19931;-60
2023/04/24 11:11:49;;;;;;;;;;;;;;;16.53;58.75;97440.97;5038839;28;19920;-60
2023/04/24 11:14:15;;;;;;;;;;;;;;;16.53;58.65;97450.66;5024613;28;19927;-60
2023/04/24 11:16:44;;;;;;;;;;;;;;;16.41;59.62;97439.22;5031360;28;19928;-63
2023/04/24 11:19:19;;;;;;;;;;;;;;;16.42;60.30;97441.63;5010753;28;19925;-60
2023/04/24 11:21:44;;;;;;;;;;;;;;;16.51;61.56;97442.19;5034425;28;19931;-60
2023/04/24 11:24:26;;;;;;;;;;;;;;;16.66;64.61;97434.81;5041034;28;19921;-60
2023/04/24 11:26:56;;;;;;;;;;;;;;;16.83;62.35;97429.91;5019300;28;19932;-60
2023/04/24 11:29:21;;;;;;;;;;;;;;;16.91;64.20;97440.13;5021475;28;19928;-61
2023/04/24 11:31:49;;;;;;;;;;;;;;;17.13;62.82;97425.84;5006205;28;20419;-60
2023/04/24 11:34:15;;;;;;;;;;;;;;;17.01;65.22;97423.09;5005516;28;19928;-60
2023/04/24 11:36:43;;;;;;;;;;;;;;;16.88;67.22;97424.00;5022696;28;19928;-60
2023/04/24 11:39:08;;;;;;;;;;;;;;;17.00;64.51;97426.75;5020033;28;20023;-62
2023/04/24 11:41:34;;;;;;;;;;;;;;;16.98;66.25;97418.28;5022121;28;20035;-61
2023/04/24 11:43:59;;;;;;;;;;;;;;;17.07;65.04;97411.75;5015186;28;19925;-60
2023/04/24 11:46:27;;;;;;;;;;;;;;;17.66;61.69;97418.22;5027072;28;20077;-60
2023/04/24 11:48:52;;;;;;;;;;;;;;;17.52;62.95;97416.75;5043876;28;20011;-61
2023/04/24 11:51:17;;;;;;;;;;;;;;;17.58;63.29;97415.09;5049371;28;20007;-60
2023/04/24 11:53:45;;;;;;;;;;;;;;;17.45;62.26;97416.84;5030267;28;19921;-60
2023/04/24 11:56:10;;;;;;;;;;;;;;;17.81;59.02;97414.41;5046317;28;20039;-60
2023/04/24 11:58:37;;;;;;;;;;;;;;;18.01;60.46;97409.75;5010608;28;20391;-60
2023/04/24 12:01:03;;;;;;;;;;;;;;;17.88;60.18;97406.50;5027812;28;20332;-60
2023/04/24 12:03:28;;;;;;;;;;;;;;;17.86;59.97;97411.97;5039978;28;19986;-60
2023/04/24 12:06:04;;;;;;;;;;;;;;;17.89;57.26;97408.09;5025039;28;19936;-59
2023/04/24 12:08:30;;;;;;;;;;;;;;;17.70;56.65;97388.88;5030458;28;19925;-60
2023/04/24 12:10:56;;;;;;;;;;;;;;;17.94;57.74;97400.34;5024962;28;19920;-60
2023/04/24 12:13:23;;;;;;;;;;;;;;;18.16;54.02;97401.50;5012428;28;19938;-60
2023/04/24 12:15:50;;;;;;;;;;;;;;;18.25;57.00;97407.22;5027922;28;19960;-59
2023/04/24 12:18:16;;;;;;;;;;;;;;;18.22;54.28;97400.59;5025067;28;19920;-60
2023/04/24 12:20:42;;;;;;;;;;;;;;;18.21;55.17;97398.97;5011872;28;20007;-60
2023/04/24 12:23:07;;;;;;;;;;;;;;;18.27;57.54;97394.63;5025173;28;20003;-59
2023/04/24 12:25:33;;;;;;;;;;;;;;;18.35;56.43;97396.19;5023652;28;19974;-60
2023/04/24 12:28:04;;;;;;;;;;;;;;;18.33;54.88;97404.28;5027859;28;19928;-59
2023/04/24 12:30:44;;;;;;;;;;;;;;;18.22;56.67;97399.78;5046481;28;19954;-59
2023/04/24 12:33:09;;;;;;;;;;;;;;;18.12;54.44;97395.03;5044586;28;20016;-59
2023/04/24 12:35:35;;;;;;;;;;;;;;;18.03;54.18;97394.56;5042979;28;20003;-59
2023/04/24 12:38:08;;;;;;;;;;;;;;;18.12;53.76;97389.00;5034604;28;20031;-58